createdAt,value
2019-03-23T00:00:40.531Z,87.60
2019-03-23T00:01:40.520Z,91.80
2019-03-23T00:02:40.504Z,86.00
2019-03-23T00:03:40.515Z,90.90
2019-03-23T00:04:40.497Z,88.70
2019-03-23T00:05:40.461Z,87.90
2019-03-23T00:06:40.454Z,89.60
2019-03-23T00:07:40.446Z,92.50
2019-03-23T00:08:40.435Z,89.80
2019-03-23T00:09:40.472Z,92.20
2019-03-23T00:10:40.412Z,84.50
2019-03-23T00:11:40.425Z,87.10
2019-03-23T00:12:40.449Z,83.70
2019-03-23T00:13:40.922Z,81.70
2019-03-23T00:14:40.403Z,86.10
2019-03-23T00:15:40.397Z,82.30
2019-03-23T00:16:40.351Z,89.60
2019-03-23T00:17:40.338Z,93.20
2019-03-23T00:18:40.327Z,88.40
2019-03-23T00:19:40.319Z,87.30
2019-03-23T00:20:40.321Z,88.20
2019-03-23T00:21:40.319Z,89.70
2019-03-23T00:22:40.297Z,92.70
2019-03-23T00:23:40.260Z,92.20
2019-03-23T00:24:40.260Z,86.80
2019-03-23T00:25:40.269Z,98.60
2019-03-23T00:26:40.277Z,98.70
2019-03-23T00:27:40.923Z,100.10
2019-03-23T00:28:40.228Z,89.00
2019-03-23T00:29:40.206Z,91.50
2019-03-23T00:30:40.194Z,93.40
2019-03-23T00:31:40.447Z,89.50
2019-03-23T00:32:40.196Z,85.00
2019-03-23T00:33:40.171Z,92.90
2019-03-23T00:34:40.148Z,87.50
2019-03-23T00:35:40.149Z,95.80
2019-03-23T00:36:41.688Z,92.50
2019-03-23T00:37:40.136Z,98.90
2019-03-23T00:38:40.111Z,90.40
2019-03-23T00:39:40.102Z,100.00
2019-03-23T00:40:40.094Z,99.20
2019-03-23T00:41:40.085Z,95.00
2019-03-23T00:42:40.115Z,90.90
2019-03-23T00:43:40.051Z,90.90
2019-03-23T00:44:40.049Z,96.10
2019-03-23T00:45:40.046Z,95.40
2019-03-23T00:46:40.067Z,96.40
2019-03-23T00:47:40.923Z,98.30
2019-03-23T00:48:40.023Z,94.20
2019-03-23T00:49:40.003Z,91.50
2019-03-23T00:50:40.003Z,95.70
2019-03-23T00:51:39.978Z,95.80
2019-03-23T00:52:39.983Z,96.40
2019-03-23T00:53:39.974Z,82.90
2019-03-23T00:54:39.927Z,93.60
2019-03-23T00:55:39.947Z,98.00
2019-03-23T00:56:39.917Z,96.30
2019-03-23T00:57:39.897Z,98.90
2019-03-23T00:58:39.929Z,100.90
2019-03-23T00:59:39.893Z,97.20
2019-03-23T01:00:39.868Z,94.00
2019-03-23T01:01:39.857Z,100.30
2019-03-23T01:02:41.761Z,97.90
2019-03-23T01:03:39.828Z,97.30
2019-03-23T01:04:39.853Z,99.00
2019-03-23T01:05:39.866Z,90.90
2019-03-23T01:06:39.802Z,93.60
2019-03-23T01:07:39.809Z,98.10
2019-03-23T01:08:39.782Z,97.30
2019-03-23T01:09:39.767Z,91.60
2019-03-23T01:10:39.777Z,96.80
2019-03-23T01:11:39.787Z,96.90
2019-03-23T01:12:39.739Z,93.50
2019-03-23T01:13:39.739Z,97.10
2019-03-23T01:14:39.718Z,102.50
2019-03-23T01:15:39.704Z,90.50
2019-03-23T01:16:39.702Z,101.70
2019-03-23T01:17:39.706Z,101.90
2019-03-23T01:18:39.690Z,100.80
2019-03-23T01:19:39.666Z,101.20
2019-03-23T01:20:49.336Z,103.30
2019-03-23T01:21:40.703Z,98.00
2019-03-23T01:22:39.635Z,94.90
2019-03-23T01:23:39.622Z,104.40
2019-03-23T01:24:39.615Z,101.50
2019-03-23T01:25:39.632Z,97.50
2019-03-23T01:26:39.602Z,99.90
2019-03-23T01:27:39.574Z,99.10
2019-03-23T01:28:39.553Z,87.20
2019-03-23T01:29:39.545Z,96.40
2019-03-23T01:30:39.550Z,98.40
2019-03-23T01:31:39.555Z,83.80
2019-03-23T01:32:39.530Z,100.70
2019-03-23T01:33:39.514Z,96.00
2019-03-23T01:34:39.494Z,88.70
2019-03-23T01:35:39.480Z,94.20
2019-03-23T01:36:39.507Z,101.70
2019-03-23T01:37:39.503Z,98.00
2019-03-23T01:38:39.444Z,101.10
2019-03-23T01:39:39.439Z,106.70
2019-03-23T01:40:39.422Z,90.60
2019-03-23T01:41:39.419Z,109.10
2019-03-23T01:42:39.421Z,111.60
2019-03-23T01:43:39.468Z,106.30
2019-03-23T01:44:39.410Z,113.10
2019-03-23T01:45:39.417Z,108.80
2019-03-23T01:46:39.383Z,98.90
2019-03-23T01:47:39.469Z,110.20
2019-03-23T01:48:39.353Z,111.40
2019-03-23T01:49:39.331Z,102.20
2019-03-23T01:50:39.331Z,110.80
2019-03-23T01:51:39.316Z,106.90
2019-03-23T01:52:39.323Z,116.10
2019-03-23T01:53:39.287Z,108.70
2019-03-23T01:54:39.294Z,107.70
2019-03-23T01:55:39.524Z,118.00
2019-03-23T01:56:39.310Z,109.90
2019-03-23T01:57:39.280Z,98.70
2019-03-23T01:58:39.253Z,97.20
2019-03-23T01:59:39.234Z,107.00
2019-03-23T02:00:39.248Z,109.20
2019-03-23T02:01:39.243Z,105.00
2019-03-23T02:02:39.194Z,95.80
2019-03-23T02:03:39.932Z,106.90
2019-03-23T02:04:39.179Z,112.60
2019-03-23T02:05:39.167Z,102.30
2019-03-23T02:06:39.175Z,106.90
2019-03-23T02:07:39.194Z,104.80
2019-03-23T02:08:39.143Z,99.10
2019-03-23T02:09:39.136Z,103.80
2019-03-23T02:10:39.104Z,98.70
2019-03-23T02:11:39.119Z,101.80
2019-03-23T02:12:39.089Z,102.60
2019-03-23T02:13:39.094Z,119.10
2019-03-23T02:14:39.061Z,108.10
2019-03-23T02:15:39.074Z,131.20
2019-03-23T02:16:39.053Z,104.10
2019-03-23T02:17:39.082Z,104.70
2019-03-23T02:18:39.012Z,108.20
2019-03-23T02:19:39.017Z,115.00
2019-03-23T02:20:39.011Z,115.60
2019-03-23T02:21:38.985Z,124.00
2019-03-23T02:22:38.983Z,107.70
2019-03-23T02:23:38.985Z,116.30
2019-03-23T02:24:38.992Z,108.30
2019-03-23T02:25:38.960Z,116.90
2019-03-23T02:26:38.934Z,113.50
2019-03-23T02:27:38.936Z,117.10
2019-03-23T02:28:38.909Z,112.90
2019-03-23T02:29:38.988Z,113.10
2019-03-23T02:30:38.894Z,129.10
2019-03-23T02:31:38.866Z,112.60
2019-03-23T02:32:38.868Z,123.60
2019-03-23T02:33:38.854Z,127.40
2019-03-23T02:34:39.446Z,113.40
2019-03-23T02:35:38.877Z,110.90
2019-03-23T02:36:38.829Z,116.60
2019-03-23T02:37:38.822Z,110.00
2019-03-23T02:38:38.858Z,111.90
2019-03-23T02:39:38.816Z,107.60
2019-03-23T02:40:38.847Z,115.50
2019-03-23T02:41:38.796Z,119.30
2019-03-23T02:42:38.791Z,114.40
2019-03-23T02:43:38.754Z,106.40
2019-03-23T02:44:38.746Z,116.50
2019-03-23T02:45:39.013Z,109.90
2019-03-23T02:46:38.716Z,112.00
2019-03-23T02:47:38.706Z,122.80
2019-03-23T02:48:38.693Z,119.80
2019-03-23T02:49:38.678Z,123.10
2019-03-23T02:50:38.660Z,129.00
2019-03-23T02:51:39.869Z,121.20
2019-03-23T02:52:38.639Z,127.80
2019-03-23T02:53:38.628Z,139.70
2019-03-23T02:54:38.626Z,126.90
2019-03-23T02:55:38.643Z,148.00
2019-03-23T02:56:38.602Z,142.70
2019-03-23T02:57:38.605Z,150.10
2019-03-23T02:58:38.584Z,121.50
2019-03-23T02:59:38.573Z,159.30
2019-03-23T03:00:38.565Z,196.10
2019-03-23T03:01:38.571Z,259.90
2019-03-23T03:02:38.528Z,342.60
2019-03-23T03:03:38.532Z,278.00
2019-03-23T03:04:38.499Z,307.70
2019-03-23T03:05:38.492Z,377.20
2019-03-23T03:06:38.541Z,383.50
2019-03-23T03:07:42.268Z,432.70
2019-03-23T03:08:38.515Z,296.50
2019-03-23T03:09:38.458Z,363.10
2019-03-23T03:10:38.449Z,395.30
2019-03-23T03:11:38.462Z,424.80
2019-03-23T03:12:38.443Z,393.40
2019-03-23T03:13:38.451Z,487.10
2019-03-23T03:14:38.394Z,505.30
2019-03-23T03:15:38.394Z,459.30
2019-03-23T03:16:38.373Z,510.70
2019-03-23T03:17:38.387Z,521.90
2019-03-23T03:18:38.381Z,502.40
2019-03-23T03:19:38.384Z,543.50
2019-03-23T03:20:38.351Z,528.30
2019-03-23T03:21:38.341Z,435.10
2019-03-23T03:22:38.344Z,594.70
2019-03-23T03:23:38.315Z,457.90
2019-03-23T03:24:38.291Z,424.70
2019-03-23T03:25:38.319Z,523.80
2019-03-23T03:26:38.310Z,451.10
2019-03-23T03:27:38.266Z,446.80
2019-03-23T03:28:38.277Z,561.30
2019-03-23T03:29:38.250Z,454.60
2019-03-23T03:30:38.280Z,407.60
2019-03-23T03:31:38.256Z,375.60
2019-03-23T03:32:38.246Z,462.90
2019-03-23T03:33:38.215Z,404.00
2019-03-23T03:34:38.217Z,507.10
2019-03-23T03:35:38.171Z,396.90
2019-03-23T03:36:38.158Z,331.10
2019-03-23T03:37:38.159Z,442.50
2019-03-23T03:38:38.153Z,211.10
2019-03-23T03:39:38.171Z,331.70
2019-03-23T03:40:38.127Z,427.40
2019-03-23T03:41:38.123Z,443.70
2019-03-23T03:42:38.106Z,399.50
2019-03-23T03:43:38.086Z,531.70
2019-03-23T03:44:38.108Z,432.00
2019-03-23T03:45:38.069Z,394.10
2019-03-23T03:46:38.049Z,422.30
2019-03-23T03:47:41.014Z,332.50
2019-03-23T03:48:38.027Z,342.20
2019-03-23T03:49:38.010Z,432.60
2019-03-23T03:50:38.039Z,452.50
2019-03-23T03:51:38.007Z,344.40
2019-03-23T03:52:38.001Z,481.60
2019-03-23T03:53:38.065Z,422.50
2019-03-23T03:54:37.965Z,450.90
2019-03-23T03:55:37.968Z,418.80
2019-03-23T03:56:37.945Z,414.80
2019-03-23T03:57:37.928Z,457.30
2019-03-23T03:58:37.954Z,404.70
2019-03-23T03:59:37.924Z,365.80
2019-03-23T04:00:37.922Z,375.80
2019-03-23T04:01:37.893Z,456.10
2019-03-23T04:02:37.904Z,377.40
2019-03-23T04:03:37.872Z,466.10
2019-03-23T04:04:37.855Z,472.10
2019-03-23T04:05:37.863Z,390.70
2019-03-23T04:06:37.840Z,395.80
2019-03-23T04:07:37.815Z,434.90
2019-03-23T04:08:37.815Z,422.20
2019-03-23T04:09:40.332Z,408.00
2019-03-23T04:10:37.818Z,465.20
2019-03-23T04:11:37.783Z,411.30
2019-03-23T04:12:37.774Z,503.20
2019-03-23T04:13:37.758Z,320.40
2019-03-23T04:14:37.749Z,387.60
2019-03-23T04:15:37.781Z,471.00
2019-03-23T04:16:37.735Z,402.40
2019-03-23T04:17:37.720Z,462.80
2019-03-23T04:18:37.704Z,527.60
2019-03-23T04:19:37.696Z,439.20
2019-03-23T04:20:37.680Z,364.10
2019-03-23T04:21:37.685Z,420.70
2019-03-23T04:22:37.692Z,380.60
2019-03-23T04:23:37.658Z,411.40
2019-03-23T04:24:37.642Z,432.50
2019-03-23T04:25:37.641Z,393.20
2019-03-23T04:26:39.276Z,319.10
2019-03-23T04:27:37.624Z,398.70
2019-03-23T04:28:37.601Z,335.10
2019-03-23T04:29:37.653Z,249.30
2019-03-23T04:30:37.573Z,384.00
2019-03-23T04:31:37.566Z,529.30
2019-03-23T04:32:37.570Z,451.40
2019-03-23T04:33:37.555Z,384.00
2019-03-23T04:34:37.534Z,505.00
2019-03-23T04:35:37.526Z,469.20
2019-03-23T04:36:37.507Z,185.00
2019-03-23T04:37:37.505Z,393.20
2019-03-23T04:38:37.497Z,348.20
2019-03-23T04:39:37.476Z,234.50
2019-03-23T04:40:37.458Z,340.70
2019-03-23T04:41:37.446Z,368.70
2019-03-23T04:42:37.445Z,297.80
2019-03-23T04:43:37.466Z,416.10
2019-03-23T04:44:37.417Z,223.80
2019-03-23T04:45:37.419Z,443.60
2019-03-23T04:46:37.397Z,459.10
2019-03-23T04:47:37.423Z,369.60
2019-03-23T04:48:37.401Z,311.60
2019-03-23T04:49:37.388Z,364.90
2019-03-23T04:50:37.363Z,284.10
2019-03-23T04:51:37.355Z,432.90
2019-03-23T04:52:37.323Z,366.80
2019-03-23T04:53:37.311Z,411.60
2019-03-23T04:54:38.953Z,512.30
2019-03-23T04:55:37.323Z,478.10
2019-03-23T04:56:37.286Z,380.90
2019-03-23T04:57:37.280Z,447.60
2019-03-23T04:58:37.256Z,269.40
2019-03-23T04:59:37.238Z,417.40
2019-03-23T05:00:37.271Z,482.10
2019-03-23T05:01:37.239Z,489.40
2019-03-23T05:02:37.243Z,484.70
2019-03-23T05:03:37.210Z,459.90
2019-03-23T05:04:37.199Z,434.50
2019-03-23T05:05:37.178Z,354.00
2019-03-23T05:06:37.199Z,357.00
2019-03-23T05:07:37.214Z,187.20
2019-03-23T05:08:37.173Z,405.80
2019-03-23T05:09:37.148Z,196.60
2019-03-23T05:10:37.129Z,385.80
2019-03-23T05:11:37.149Z,379.20
2019-03-23T05:12:37.113Z,379.60
2019-03-23T05:13:37.094Z,415.60
2019-03-23T05:14:37.093Z,300.60
2019-03-23T05:15:37.082Z,317.50
2019-03-23T05:16:37.072Z,360.00
2019-03-23T05:17:37.083Z,136.80
2019-03-23T05:18:37.041Z,472.30
2019-03-23T05:19:37.024Z,501.10
2019-03-23T05:20:37.026Z,358.60
2019-03-23T05:21:37.014Z,337.40
2019-03-23T05:22:37.024Z,272.30
2019-03-23T05:23:36.996Z,273.40
2019-03-23T05:24:36.985Z,326.80
2019-03-23T05:25:36.971Z,309.70
2019-03-23T05:26:36.965Z,229.30
2019-03-23T05:27:36.964Z,397.20
2019-03-23T05:28:36.971Z,299.30
2019-03-23T05:29:36.940Z,198.20
2019-03-23T05:30:36.933Z,295.80
2019-03-23T05:31:36.896Z,214.00
2019-03-23T05:32:36.890Z,324.80
2019-03-23T05:33:36.874Z,308.00
2019-03-23T05:34:36.907Z,305.90
2019-03-23T05:35:36.864Z,362.40
2019-03-23T05:36:36.841Z,181.10
2019-03-23T05:37:36.839Z,340.00
2019-03-23T05:38:44.218Z,300.40
2019-03-23T05:39:37.834Z,370.50
2019-03-23T05:40:36.804Z,257.40
2019-03-23T05:41:36.801Z,204.80
2019-03-23T05:42:36.777Z,234.70
2019-03-23T05:43:36.769Z,115.10
2019-03-23T05:44:36.783Z,188.60
2019-03-23T05:45:36.747Z,206.50
2019-03-23T05:46:36.748Z,221.70
2019-03-23T05:47:36.741Z,224.50
2019-03-23T05:48:36.726Z,202.40
2019-03-23T05:49:36.721Z,140.40
2019-03-23T05:50:36.718Z,142.90
2019-03-23T05:51:36.676Z,232.90
2019-03-23T05:52:36.676Z,137.50
2019-03-23T05:53:36.667Z,135.30
2019-03-23T05:54:36.640Z,137.60
2019-03-23T05:55:36.667Z,139.10
2019-03-23T05:56:36.628Z,93.60
2019-03-23T05:57:36.615Z,100.50
2019-03-23T05:58:36.615Z,76.70
2019-03-23T05:59:36.602Z,82.60
2019-03-23T06:00:36.631Z,103.30
2019-03-23T06:01:36.575Z,52.90
2019-03-23T06:02:36.556Z,52.80
2019-03-23T06:03:36.543Z,67.70
2019-03-23T06:04:36.533Z,53.60
2019-03-23T06:05:36.531Z,47.60
2019-03-23T06:06:36.551Z,48.60
2019-03-23T06:07:36.524Z,40.20
2019-03-23T06:08:36.488Z,41.90
2019-03-23T06:09:36.480Z,40.90
2019-03-23T06:10:36.493Z,39.70
2019-03-23T06:11:36.489Z,35.50
2019-03-23T06:12:36.464Z,34.30
2019-03-23T06:13:36.448Z,35.20
2019-03-23T06:14:36.432Z,35.50
2019-03-23T06:15:36.421Z,37.70
2019-03-23T06:16:36.442Z,34.50
2019-03-23T06:17:36.390Z,35.10
2019-03-23T06:18:36.388Z,35.70
2019-03-23T06:19:36.384Z,34.80
2019-03-23T06:20:36.376Z,33.60
2019-03-23T06:21:36.359Z,37.20
2019-03-23T06:22:36.354Z,32.00
2019-03-23T06:23:36.349Z,32.00
2019-03-23T06:24:36.321Z,30.40
2019-03-23T06:25:36.323Z,33.30
2019-03-23T06:26:36.301Z,32.60
2019-03-23T06:27:36.321Z,32.40
2019-03-23T06:28:36.320Z,34.20
2019-03-23T06:29:36.275Z,31.60
2019-03-23T06:30:36.258Z,32.10
2019-03-23T06:31:36.253Z,33.30
2019-03-23T06:32:36.238Z,30.70
2019-03-23T06:33:36.276Z,31.40
2019-03-23T06:34:36.212Z,30.60
2019-03-23T06:35:36.195Z,30.90
2019-03-23T06:36:36.198Z,32.30
2019-03-23T06:37:36.171Z,31.70
2019-03-23T06:38:36.194Z,31.90
2019-03-23T06:39:36.167Z,31.40
2019-03-23T06:40:36.146Z,30.10
2019-03-23T06:41:36.134Z,34.30
2019-03-23T06:42:36.124Z,34.50
2019-03-23T06:43:36.163Z,33.10
2019-03-23T06:44:36.106Z,32.90
2019-03-23T06:45:36.097Z,28.90
2019-03-23T06:46:36.095Z,29.90
2019-03-23T06:47:36.069Z,31.60
2019-03-23T06:48:36.051Z,33.10
2019-03-23T06:49:36.063Z,31.70
2019-03-23T06:50:36.038Z,32.00
2019-03-23T06:51:36.029Z,33.20
2019-03-23T06:52:36.018Z,32.30
2019-03-23T06:53:36.004Z,31.80
2019-03-23T06:54:36.011Z,31.40
2019-03-23T06:55:35.977Z,32.90
2019-03-23T06:56:35.971Z,30.00
2019-03-23T06:57:35.970Z,29.70
2019-03-23T06:58:35.956Z,33.30
2019-03-23T06:59:35.943Z,33.20
2019-03-23T07:00:35.918Z,31.30
2019-03-23T07:01:35.912Z,30.50
2019-03-23T07:02:35.933Z,32.90
2019-03-23T07:03:35.891Z,32.00
2019-03-23T07:04:35.899Z,30.90
2019-03-23T07:05:35.868Z,34.10
2019-03-23T07:06:35.853Z,32.40
2019-03-23T07:07:35.875Z,34.80
2019-03-23T07:08:35.823Z,32.10
2019-03-23T07:09:35.854Z,32.80
2019-03-23T07:10:35.827Z,32.20
2019-03-23T07:11:35.806Z,32.50
2019-03-23T07:12:35.787Z,31.30
2019-03-23T07:13:35.779Z,35.10
2019-03-23T07:14:35.790Z,29.50
2019-03-23T07:15:35.760Z,32.00
2019-03-23T07:16:35.823Z,32.30
2019-03-23T07:17:35.799Z,31.70
2019-03-23T07:18:35.726Z,34.80
2019-03-23T07:19:35.744Z,33.10
2019-03-23T07:20:35.701Z,34.80
2019-03-23T07:21:35.698Z,34.40
2019-03-23T07:22:35.708Z,33.00
2019-03-23T07:23:35.706Z,32.60
2019-03-23T07:24:35.665Z,33.90
2019-03-23T07:25:35.653Z,33.90
2019-03-23T07:26:35.635Z,34.90
2019-03-23T07:27:35.620Z,30.30
2019-03-23T07:28:35.619Z,31.30
2019-03-23T07:29:35.649Z,33.60
2019-03-23T07:30:35.591Z,34.50
2019-03-23T07:31:35.583Z,38.40
2019-03-23T07:32:35.584Z,36.10
2019-03-23T07:33:35.559Z,33.00
2019-03-23T07:34:35.549Z,35.30
2019-03-23T07:35:35.655Z,32.00
2019-03-23T07:36:35.530Z,35.70
2019-03-23T07:37:35.526Z,31.00
2019-03-23T07:38:35.493Z,32.00
2019-03-23T07:39:35.493Z,32.30
2019-03-23T07:40:35.476Z,37.40
2019-03-23T07:41:35.482Z,35.20
2019-03-23T07:42:35.466Z,35.20
2019-03-23T07:43:35.484Z,32.60
2019-03-23T07:44:35.437Z,34.20
2019-03-23T07:45:35.435Z,36.90
2019-03-23T07:46:35.666Z,34.40
2019-03-23T07:47:35.407Z,33.80
2019-03-23T07:48:35.399Z,39.30
2019-03-23T07:49:35.384Z,35.90
2019-03-23T07:50:35.366Z,36.50
2019-03-23T07:51:35.357Z,35.20
2019-03-23T07:52:35.360Z,37.90
2019-03-23T07:53:35.329Z,34.20
2019-03-23T07:54:35.338Z,36.10
2019-03-23T07:55:35.317Z,36.40
2019-03-23T07:56:35.332Z,35.80
2019-03-23T07:57:35.297Z,38.30
2019-03-23T07:58:35.291Z,36.90
2019-03-23T07:59:35.267Z,38.70
2019-03-23T08:00:35.310Z,35.40
2019-03-23T08:01:35.289Z,33.90
2019-03-23T08:02:35.234Z,35.50
2019-03-23T08:03:35.238Z,36.60
2019-03-23T08:04:35.221Z,35.30
2019-03-23T08:05:35.205Z,37.80
2019-03-23T08:06:35.206Z,37.60
2019-03-23T08:07:35.233Z,35.40
2019-03-23T08:08:35.174Z,43.40
2019-03-23T08:09:37.832Z,35.70
2019-03-23T08:10:35.150Z,35.30
2019-03-23T08:11:35.130Z,35.20
2019-03-23T08:12:35.128Z,37.60
2019-03-23T08:13:35.144Z,37.30
2019-03-23T08:14:36.131Z,36.60
2019-03-23T08:15:35.108Z,38.90
2019-03-23T08:16:35.079Z,38.10
2019-03-23T08:17:35.069Z,35.30
2019-03-23T08:18:35.097Z,37.20
2019-03-23T08:19:35.058Z,41.20
2019-03-23T08:20:35.043Z,37.60
2019-03-23T08:21:35.052Z,38.70
2019-03-23T08:22:35.000Z,35.30
2019-03-23T08:23:35.022Z,37.00
2019-03-23T08:24:34.990Z,36.40
2019-03-23T08:25:34.987Z,36.70
2019-03-23T08:26:34.984Z,37.80
2019-03-23T08:27:35.015Z,40.70
2019-03-23T08:28:35.016Z,39.70
2019-03-23T08:29:35.381Z,34.80
2019-03-23T08:30:34.922Z,39.90
2019-03-23T08:31:35.078Z,34.40
2019-03-23T08:32:34.924Z,36.80
2019-03-23T08:33:34.924Z,38.00
2019-03-23T08:34:34.932Z,40.60
2019-03-23T08:35:34.882Z,38.10
2019-03-23T08:36:34.869Z,37.70
2019-03-23T08:37:34.851Z,37.60
2019-03-23T08:38:34.857Z,36.10
2019-03-23T08:39:34.857Z,34.80
2019-03-23T08:40:35.916Z,36.80
2019-03-23T08:41:34.847Z,40.40
2019-03-23T08:42:35.058Z,35.00
2019-03-23T08:43:34.793Z,35.40
2019-03-23T08:44:34.780Z,38.70
2019-03-23T08:45:34.763Z,41.20
2019-03-23T08:46:34.786Z,36.20
2019-03-23T08:47:34.750Z,37.60
2019-03-23T08:48:34.727Z,35.00
2019-03-23T08:49:34.725Z,37.60
2019-03-23T08:50:34.736Z,37.20
2019-03-23T08:51:34.715Z,36.30
2019-03-23T08:52:34.723Z,32.60
2019-03-23T08:53:34.690Z,34.00
2019-03-23T08:54:34.673Z,33.50
2019-03-23T08:55:34.656Z,33.40
2019-03-23T08:56:34.679Z,33.80
2019-03-23T08:57:34.671Z,35.40
2019-03-23T08:58:34.633Z,31.70
2019-03-23T08:59:34.617Z,35.30
2019-03-23T09:00:34.608Z,32.40
2019-03-23T09:01:34.610Z,31.50
2019-03-23T09:02:34.601Z,30.40
2019-03-23T09:03:34.619Z,29.90
2019-03-23T09:04:36.477Z,34.10
2019-03-23T09:05:34.562Z,30.10
2019-03-23T09:06:34.558Z,33.10
2019-03-23T09:07:34.543Z,28.80
2019-03-23T09:08:34.540Z,31.70
2019-03-23T09:09:34.548Z,30.30
2019-03-23T09:10:34.503Z,28.30
2019-03-23T09:11:34.482Z,28.10
2019-03-23T09:12:34.492Z,28.90
2019-03-23T09:13:40.609Z,30.70
2019-03-23T09:14:35.501Z,27.20
2019-03-23T09:15:34.462Z,29.10
2019-03-23T09:16:34.456Z,31.70
2019-03-23T09:17:34.444Z,30.90
2019-03-23T09:18:34.443Z,29.10
2019-03-23T09:19:34.409Z,29.70
2019-03-23T09:20:34.444Z,30.10
2019-03-23T09:21:34.393Z,30.00
2019-03-23T09:22:34.382Z,31.90
2019-03-23T09:23:34.381Z,28.10
2019-03-23T09:24:34.355Z,30.70
2019-03-23T09:25:34.373Z,28.90
2019-03-23T09:26:34.355Z,30.40
2019-03-23T09:27:34.361Z,29.80
2019-03-23T09:28:34.328Z,31.80
2019-03-23T09:29:34.321Z,26.60
2019-03-23T09:30:34.294Z,30.30
2019-03-23T09:31:34.306Z,30.00
2019-03-23T09:32:34.277Z,27.10
2019-03-23T09:33:34.267Z,28.20
2019-03-23T09:34:34.290Z,27.00
2019-03-23T09:35:34.315Z,28.50
2019-03-23T09:36:34.236Z,28.70
2019-03-23T09:37:38.319Z,28.20
2019-03-23T09:38:34.232Z,27.80
2019-03-23T09:39:34.215Z,26.50
2019-03-23T09:40:34.205Z,30.30
2019-03-23T09:41:34.192Z,28.80
2019-03-23T09:42:34.186Z,30.40
2019-03-23T09:43:34.168Z,27.00
2019-03-23T09:44:34.179Z,26.60
2019-03-23T09:45:34.146Z,26.70
2019-03-23T09:46:34.141Z,29.10
2019-03-23T09:47:34.132Z,27.30
2019-03-23T09:48:34.141Z,27.10
2019-03-23T09:49:34.103Z,30.00
2019-03-23T09:50:34.085Z,24.90
2019-03-23T09:51:34.086Z,26.80
2019-03-23T09:52:34.085Z,28.20
2019-03-23T09:53:34.106Z,24.70
2019-03-23T09:54:34.060Z,29.90
2019-03-23T09:55:34.049Z,28.40
2019-03-23T09:56:34.032Z,27.70
2019-03-23T09:57:34.026Z,30.40
2019-03-23T09:58:34.035Z,30.60
2019-03-23T09:59:34.037Z,28.20
2019-03-23T10:00:34.014Z,27.10
2019-03-23T10:01:34.034Z,28.50
2019-03-23T10:02:33.974Z,26.90
2019-03-23T10:03:33.981Z,28.10
2019-03-23T10:04:33.950Z,29.20
2019-03-23T10:05:33.936Z,29.50
2019-03-23T10:06:33.947Z,26.90
2019-03-23T10:07:33.956Z,25.80
2019-03-23T10:08:33.915Z,27.20
2019-03-23T10:09:33.938Z,27.20
2019-03-23T10:10:33.899Z,27.50
2019-03-23T10:11:33.894Z,28.80
2019-03-23T10:12:33.931Z,28.40
2019-03-23T10:13:33.894Z,27.50
2019-03-23T10:14:33.846Z,27.40
2019-03-23T10:15:33.874Z,24.10
2019-03-23T10:16:33.833Z,27.30
2019-03-23T10:17:33.832Z,28.90
2019-03-23T10:18:33.826Z,30.10
2019-03-23T10:19:33.810Z,27.10
2019-03-23T10:20:33.802Z,30.40
2019-03-23T10:21:33.807Z,27.90
2019-03-23T10:22:33.765Z,29.60
2019-03-23T10:23:33.796Z,28.60
2019-03-23T10:24:33.768Z,27.40
2019-03-23T10:25:33.764Z,26.30
2019-03-23T10:26:33.745Z,27.20
2019-03-23T10:27:33.738Z,29.40
2019-03-23T10:28:33.714Z,29.10
2019-03-23T10:29:33.715Z,30.00
2019-03-23T10:30:33.774Z,30.60
2019-03-23T10:31:33.701Z,30.00
2019-03-23T10:32:33.702Z,30.20
2019-03-23T10:33:33.689Z,27.40
2019-03-23T10:34:33.657Z,27.90
2019-03-23T10:35:33.645Z,29.50
2019-03-23T10:36:33.667Z,28.80
2019-03-23T10:37:33.679Z,30.90
2019-03-23T10:38:33.632Z,29.20
2019-03-23T10:39:33.612Z,26.00
2019-03-23T10:40:33.590Z,26.80
2019-03-23T10:41:33.581Z,26.40
2019-03-23T10:42:33.614Z,28.10
2019-03-23T10:43:33.577Z,27.20
2019-03-23T10:44:33.571Z,30.10
2019-03-23T10:45:40.073Z,27.00
2019-03-23T10:46:34.549Z,29.60
2019-03-23T10:47:33.646Z,26.20
2019-03-23T10:48:33.530Z,31.90
2019-03-23T10:49:33.516Z,29.80
2019-03-23T10:50:33.510Z,27.10
2019-03-23T10:51:33.514Z,31.20
2019-03-23T10:52:33.487Z,32.80
2019-03-23T10:53:33.490Z,31.40
2019-03-23T10:54:33.450Z,29.40
2019-03-23T10:55:33.443Z,31.40
2019-03-23T10:56:33.489Z,29.90
2019-03-23T10:57:33.436Z,27.60
2019-03-23T10:58:33.412Z,30.00
2019-03-23T10:59:33.413Z,29.10
2019-03-23T11:00:33.401Z,29.60
2019-03-23T11:01:33.389Z,31.80
2019-03-23T11:02:33.402Z,29.00
2019-03-23T11:03:33.401Z,28.80
2019-03-23T11:04:33.360Z,29.30
2019-03-23T11:05:33.355Z,30.30
2019-03-23T11:06:33.334Z,30.40
2019-03-23T11:07:33.330Z,32.00
2019-03-23T11:08:33.327Z,31.40
2019-03-23T11:09:33.301Z,30.10
2019-03-23T11:10:41.574Z,32.20
2019-03-23T11:11:34.289Z,31.30
2019-03-23T11:12:33.279Z,29.50
2019-03-23T11:13:33.296Z,32.10
2019-03-23T11:14:33.265Z,28.50
2019-03-23T11:15:33.256Z,35.00
2019-03-23T11:16:33.256Z,31.40
2019-03-23T11:17:33.244Z,32.40
2019-03-23T11:18:33.215Z,31.30
2019-03-23T11:19:33.241Z,30.20
2019-03-23T11:20:33.197Z,35.10
2019-03-23T11:21:33.209Z,29.70
2019-03-23T11:22:33.192Z,31.40
2019-03-23T11:23:33.189Z,35.50
2019-03-23T11:24:33.190Z,36.40
2019-03-23T11:25:33.158Z,36.10
2019-03-23T11:26:33.139Z,38.70
2019-03-23T11:27:33.141Z,35.80
2019-03-23T11:28:33.135Z,36.90
2019-03-23T11:29:33.162Z,38.90
2019-03-23T11:30:33.095Z,36.50
2019-03-23T11:31:33.091Z,36.80
2019-03-23T11:32:33.101Z,39.90
2019-03-23T11:33:33.070Z,35.20
2019-03-23T11:34:33.076Z,39.70
2019-03-23T11:35:33.080Z,38.10
2019-03-23T11:36:33.044Z,40.00
2019-03-23T11:37:33.105Z,39.20
2019-03-23T11:38:33.067Z,40.20
2019-03-23T11:39:33.010Z,42.90
2019-03-23T11:40:33.027Z,39.50
2019-03-23T11:41:33.015Z,43.50
2019-03-23T11:42:33.001Z,41.50
2019-03-23T11:43:32.984Z,40.20
2019-03-23T11:44:32.966Z,37.90
2019-03-23T11:45:32.956Z,38.20
2019-03-23T11:46:32.975Z,38.40
2019-03-23T11:47:32.938Z,39.70
2019-03-23T11:48:32.952Z,39.70
2019-03-23T11:49:32.922Z,38.60
2019-03-23T11:50:32.918Z,41.80
2019-03-23T11:51:32.893Z,41.70
2019-03-23T11:52:32.888Z,39.70
2019-03-23T11:53:32.874Z,43.30
2019-03-23T11:54:32.905Z,43.70
2019-03-23T11:55:32.882Z,40.10
2019-03-23T11:56:32.842Z,37.50
2019-03-23T11:57:32.839Z,41.90
2019-03-23T11:58:32.843Z,42.40
2019-03-23T11:59:32.835Z,39.50
2019-03-23T12:00:32.814Z,38.20
2019-03-23T12:01:32.807Z,38.60
2019-03-23T12:02:32.782Z,36.20
2019-03-23T12:03:32.804Z,39.10
2019-03-23T12:04:32.757Z,36.70
2019-03-23T12:05:32.756Z,35.60
2019-03-23T12:06:32.751Z,38.80
2019-03-23T12:07:32.740Z,37.90
2019-03-23T12:08:32.728Z,37.90
2019-03-23T12:09:32.740Z,41.50
2019-03-23T12:10:32.700Z,38.80
2019-03-23T12:11:32.693Z,40.30
2019-03-23T12:12:32.685Z,38.50
2019-03-23T12:13:32.670Z,40.60
2019-03-23T12:14:32.700Z,36.10
2019-03-23T12:15:32.676Z,34.80
2019-03-23T12:16:32.654Z,41.10
2019-03-23T12:17:32.629Z,35.90
2019-03-23T12:18:32.653Z,38.40
2019-03-23T12:19:32.619Z,40.70
2019-03-23T12:20:32.628Z,36.50
2019-03-23T12:21:32.603Z,37.10
2019-03-23T12:22:32.573Z,40.20
2019-03-23T12:23:32.567Z,40.50
2019-03-23T12:24:32.561Z,37.50
2019-03-23T12:25:32.563Z,39.00
2019-03-23T12:26:32.542Z,42.00
2019-03-23T12:27:32.533Z,39.70
2019-03-23T12:28:32.539Z,43.90
2019-03-23T12:29:32.520Z,40.30
2019-03-23T12:30:32.525Z,39.00
2019-03-23T12:31:32.478Z,43.60
2019-03-23T12:32:32.479Z,41.70
2019-03-23T12:33:32.476Z,44.20
2019-03-23T12:34:32.472Z,43.20
2019-03-23T12:35:32.440Z,43.20
2019-03-23T12:36:32.429Z,41.60
2019-03-23T12:37:32.435Z,39.40
2019-03-23T12:38:32.423Z,40.00
2019-03-23T12:39:32.405Z,42.30
2019-03-23T12:40:32.389Z,41.90
2019-03-23T12:41:32.394Z,44.50
2019-03-23T12:42:32.375Z,43.00
2019-03-23T12:43:32.352Z,42.50
2019-03-23T12:44:32.339Z,43.60